Time;durP1;ratioP1;P1;durP2;ratioP2;P2;SDS_P1;SDS_P2;PMS_P1;PMS_P2;Temp;Humidity;BMP_temperature;BMP_pressure;BME280_temperature;BME280_humidity;BME280_pressure;Samples;Min_cycle;Max_cycle;Signal;HPM_P1;HPM_P2
2023/08/17 00:01:16;;;;;;;13.47;12.47;;;19.00;99.90;;;;;;5033632;28;20194;-76
2023/08/17 00:03:43;;;;;;;13.67;12.53;;;19.00;99.90;;;;;;5033581;28;20190;-76
2023/08/17 00:06:11;;;;;;;13.53;12.53;;;18.90;99.90;;;;;;5034323;28;20215;-76
2023/08/17 00:08:38;;;;;;;13.53;12.53;;;18.90;99.90;;;;;;5034584;28;20265;-76
2023/08/17 00:11:05;;;;;;;13.47;12.27;;;18.90;99.90;;;;;;5034668;28;20261;-76
2023/08/17 00:13:32;;;;;;;13.97;12.87;;;18.80;99.90;;;;;;5034439;28;20200;-77
2023/08/17 00:15:59;;;;;;;13.40;12.50;;;18.80;99.90;;;;;;5032797;28;20220;-76
2023/08/17 00:18:25;;;;;;;13.63;12.73;;;18.80;99.90;;;;;;5034808;28;20199;-76
2023/08/17 00:20:52;;;;;;;14.30;13.17;;;18.80;99.90;;;;;;5033151;28;20196;-76
2023/08/17 00:23:21;;;;;;;13.73;12.73;;;18.80;99.90;;;;;;5034821;28;20199;-76
2023/08/17 00:25:48;;;;;;;13.77;12.87;;;18.80;99.90;;;;;;5084664;23;20223;-77
2023/08/17 00:28:15;;;;;;;14.00;12.70;;;18.70;99.90;;;;;;5079326;28;20249;-77
2023/08/17 00:30:42;;;;;;;13.67;12.67;;;18.70;99.90;;;;;;5078822;28;20212;-77
2023/08/17 00:33:10;;;;;;;14.37;13.23;;;18.70;99.90;;;;;;5078548;28;20203;-76
2023/08/17 00:35:37;;;;;;;13.70;12.60;;;18.70;99.90;;;;;;5072700;28;20253;-76
2023/08/17 00:38:04;;;;;;;13.33;12.27;;;18.70;99.90;;;;;;5078933;28;20204;-77
2023/08/17 00:40:32;;;;;;;13.40;12.30;;;18.70;99.90;;;;;;5070838;28;20251;-76
2023/08/17 00:42:59;;;;;;;14.70;13.40;;;18.60;99.90;;;;;;5077595;28;20736;-77
2023/08/17 00:45:27;;;;;;;14.73;13.47;;;18.60;99.90;;;;;;5077976;28;20212;-77
2023/08/17 00:47:57;;;;;;;14.40;12.90;;;18.60;99.90;;;;;;5077755;28;20200;-76
2023/08/17 00:50:26;;;;;;;13.80;12.77;;;18.60;99.90;;;;;;5078282;28;20201;-77
2023/08/17 00:52:53;;;;;;;13.53;12.63;;;18.50;99.90;;;;;;5077616;28;20205;-78
2023/08/17 00:55:21;;;;;;;13.97;12.97;;;18.50;99.90;;;;;;5077801;28;20609;-77
2023/08/17 00:57:49;;;;;;;13.63;12.67;;;18.50;99.90;;;;;;5077731;28;20199;-77
2023/08/17 01:00:17;;;;;;;14.10;13.10;;;18.50;99.90;;;;;;5070066;28;20204;-78
2023/08/17 01:02:45;;;;;;;13.87;12.87;;;18.50;99.90;;;;;;5077803;28;20272;-76
2023/08/17 01:05:12;;;;;;;14.07;13.00;;;18.50;99.90;;;;;;5076511;28;20482;-77
2023/08/17 01:07:38;;;;;;;15.07;13.87;;;18.50;99.90;;;;;;5076969;28;20208;-78
2023/08/17 01:10:09;;;;;;;14.30;13.30;;;18.50;99.90;;;;;;5076781;28;20646;-77
2023/08/17 01:12:43;;;;;;;13.90;12.80;;;18.50;99.90;;;;;;5071550;28;20224;-78
2023/08/17 01:15:15;;;;;;;13.73;12.70;;;18.50;99.90;;;;;;5078135;28;20303;-76
2023/08/17 01:17:46;;;;;;;13.67;12.77;;;18.50;99.90;;;;;;5077221;28;20198;-77
2023/08/17 01:20:16;;;;;;;14.30;13.20;;;18.40;99.90;;;;;;5072998;28;20200;-77
2023/08/17 01:22:46;;;;;;;13.83;12.93;;;18.40;99.90;;;;;;5073354;28;20246;-76
2023/08/17 01:25:14;;;;;;;13.90;12.90;;;18.40;99.90;;;;;;5076803;28;20219;-78
2023/08/17 01:27:45;;;;;;;13.60;12.70;;;18.30;99.90;;;;;;5078118;28;20196;-76
2023/08/17 01:30:15;;;;;;;14.77;13.47;;;18.40;99.90;;;;;;5078445;28;20203;-76
2023/08/17 01:32:48;;;;;;;13.47;12.57;;;18.40;99.90;;;;;;5069273;28;20209;-78
2023/08/17 01:35:27;;;;;;;13.90;13.00;;;18.30;99.90;;;;;;5075873;28;20247;-78
2023/08/17 01:37:56;;;;;;;14.20;13.20;;;18.30;99.90;;;;;;5076287;28;20199;-77
2023/08/17 01:40:26;;;;;;;14.97;13.77;;;18.30;99.90;;;;;;5077113;28;20212;-76
2023/08/17 01:42:54;;;;;;;14.93;13.93;;;18.30;99.90;;;;;;5076230;28;20572;-76
2023/08/17 01:45:22;;;;;;;15.17;14.17;;;18.30;99.90;;;;;;5076044;28;20659;-76
2023/08/17 01:47:50;;;;;;;16.07;14.67;;;18.20;99.90;;;;;;5076663;28;20663;-77
2023/08/17 01:50:17;;;;;;;14.47;13.47;;;18.20;99.90;;;;;;5076814;28;20204;-77
2023/08/17 01:52:44;;;;;;;14.37;13.37;;;18.20;99.90;;;;;;5077612;28;20191;-76
2023/08/17 01:55:10;;;;;;;14.57;13.60;;;18.10;99.90;;;;;;5076813;28;20219;-76
2023/08/17 01:57:38;;;;;;;14.60;13.60;;;18.10;99.90;;;;;;5076274;28;20200;-76
2023/08/17 02:00:06;;;;;;;14.53;13.43;;;18.10;99.90;;;;;;5076413;28;20223;-78
2023/08/17 02:02:41;;;;;;;15.00;14.00;;;18.10;99.90;;;;;;5077505;28;20226;-76
2023/08/17 02:05:08;;;;;;;14.57;13.57;;;18.10;99.90;;;;;;5075843;28;20220;-77
2023/08/17 02:07:35;;;;;;;14.40;13.40;;;18.10;99.90;;;;;;5077061;28;20747;-78
2023/08/17 02:10:02;;;;;;;14.23;13.23;;;18.00;99.90;;;;;;5075653;28;20207;-77
2023/08/17 02:12:29;;;;;;;14.87;13.80;;;18.10;99.90;;;;;;5076117;28;20196;-76
2023/08/17 02:14:57;;;;;;;14.83;13.83;;;18.10;99.90;;;;;;5071422;28;20216;-77
2023/08/17 02:17:24;;;;;;;14.57;13.47;;;18.00;99.90;;;;;;5076569;28;20313;-77
2023/08/17 02:19:51;;;;;;;15.20;14.10;;;18.00;99.90;;;;;;5076353;28;20194;-77
2023/08/17 02:22:18;;;;;;;15.47;14.27;;;18.00;99.90;;;;;;5075869;28;20203;-77
2023/08/17 02:24:46;;;;;;;14.67;13.60;;;18.00;99.90;;;;;;5077190;28;20224;-77
2023/08/17 02:27:13;;;;;;;15.23;14.23;;;17.90;99.90;;;;;;5075934;28;20208;-76
2023/08/17 02:29:40;;;;;;;15.57;14.47;;;17.90;99.90;;;;;;5075752;28;20920;-76
2023/08/17 02:32:08;;;;;;;14.60;13.60;;;17.90;99.90;;;;;;5075556;28;20203;-76
2023/08/17 02:34:35;;;;;;;13.90;12.90;;;17.90;99.90;;;;;;5075839;28;20203;-78
2023/08/17 02:37:02;;;;;;;13.70;12.80;;;17.80;99.90;;;;;;5075093;28;20609;-77
2023/08/17 02:39:29;;;;;;;14.90;13.80;;;17.80;99.90;;;;;;5076462;28;20191;-78
2023/08/17 02:41:56;;;;;;;14.37;13.43;;;17.80;99.90;;;;;;5076479;28;20196;-77
2023/08/17 02:44:23;;;;;;;13.83;12.83;;;17.80;99.90;;;;;;5075781;28;20282;-76
2023/08/17 02:46:49;;;;;;;14.17;13.17;;;17.80;99.90;;;;;;5075743;28;20188;-77
2023/08/17 02:49:18;;;;;;;13.93;13.03;;;17.80;99.90;;;;;;5076069;28;20665;-77
2023/08/17 02:51:45;;;;;;;14.10;13.13;;;17.80;99.90;;;;;;5076244;28;20213;-77
2023/08/17 02:54:12;;;;;;;14.37;13.37;;;17.80;99.90;;;;;;5074941;28;20226;-76
2023/08/17 02:56:38;;;;;;;14.23;13.07;;;17.70;99.90;;;;;;5072912;28;20705;-78
2023/08/17 02:59:05;;;;;;;14.83;13.73;;;17.70;99.90;;;;;;5075524;28;20210;-76
2023/08/17 03:01:32;;;;;;;14.00;13.07;;;17.70;99.90;;;;;;5069860;28;20200;-77
2023/08/17 03:03:59;;;;;;;14.43;13.47;;;17.70;99.90;;;;;;5075198;28;20196;-77
2023/08/17 03:06:27;;;;;;;14.20;13.20;;;17.70;99.90;;;;;;5076227;28;20216;-76
2023/08/17 03:08:54;;;;;;;14.13;13.13;;;17.70;99.90;;;;;;5075751;28;20206;-76
2023/08/17 03:11:21;;;;;;;14.77;13.67;;;17.60;99.90;;;;;;5075033;28;20203;-80
2023/08/17 03:13:48;;;;;;;16.07;14.87;;;17.70;99.90;;;;;;5074696;28;20225;-78
2023/08/17 03:16:15;;;;;;;15.70;14.60;;;17.80;99.90;;;;;;5075583;28;20222;-77
2023/08/17 03:18:42;;;;;;;15.63;14.53;;;17.80;99.90;;;;;;5075893;28;20199;-77
2023/08/17 03:21:10;;;;;;;14.67;13.67;;;17.90;99.90;;;;;;5067790;28;20631;-78
2023/08/17 03:23:38;;;;;;;14.60;13.70;;;17.90;99.90;;;;;;5075390;28;20559;-78
2023/08/17 03:26:05;;;;;;;14.53;13.60;;;17.90;99.90;;;;;;5075592;28;20227;-78
2023/08/17 03:28:32;;;;;;;15.40;14.30;;;17.90;99.90;;;;;;5072176;28;20290;-78
2023/08/17 03:30:59;;;;;;;15.10;13.90;;;17.90;99.90;;;;;;5075605;28;20211;-79
2023/08/17 03:33:26;;;;;;;14.90;13.87;;;17.90;99.90;;;;;;5075759;28;20260;-78
2023/08/17 03:35:53;;;;;;;13.90;13.00;;;17.90;99.90;;;;;;5074844;28;20212;-78
2023/08/17 03:38:20;;;;;;;14.40;13.50;;;17.90;99.90;;;;;;5075754;28;20200;-79
2023/08/17 03:40:48;;;;;;;14.47;13.57;;;17.90;99.90;;;;;;5075207;28;20194;-78
2023/08/17 03:43:15;;;;;;;14.33;13.43;;;17.90;99.90;;;;;;5075236;28;20204;-78
2023/08/17 03:45:43;;;;;;;14.30;13.40;;;17.90;99.90;;;;;;5069448;28;20221;-78
2023/08/17 03:48:09;;;;;;;14.60;13.70;;;17.90;99.90;;;;;;5074883;28;20199;-77
2023/08/17 03:50:36;;;;;;;14.20;13.30;;;17.90;99.90;;;;;;5076706;28;20611;-77
2023/08/17 03:53:03;;;;;;;13.73;12.93;;;18.00;99.90;;;;;;5075189;28;20207;-78
2023/08/17 03:55:30;;;;;;;13.50;12.70;;;18.00;99.90;;;;;;5069259;28;20212;-78
2023/08/17 03:57:58;;;;;;;13.90;13.10;;;18.00;99.90;;;;;;5074452;28;20195;-78
2023/08/17 04:00:25;;;;;;;14.93;14.03;;;18.10;99.90;;;;;;5074113;28;20214;-78
2023/08/17 04:02:57;;;;;;;7.97;7.40;;;18.10;99.90;;;;;;5074571;28;20603;-78
2023/08/17 04:05:24;;;;;;;8.23;7.63;;;18.10;99.90;;;;;;5074183;28;20228;-79
2023/08/17 04:07:51;;;;;;;6.80;6.20;;;18.10;99.90;;;;;;5074416;28;20200;-78
2023/08/17 04:10:17;;;;;;;5.90;5.40;;;18.10;99.90;;;;;;5075487;28;20266;-77
2023/08/17 04:12:44;;;;;;;8.87;8.27;;;18.20;99.90;;;;;;5081079;28;20257;-77
2023/08/17 04:15:12;;;;;;;13.47;12.47;;;18.20;99.90;;;;;;5081815;28;20224;-77
2023/08/17 04:17:39;;;;;;;13.07;11.97;;;18.20;99.90;;;;;;5072936;28;20205;-77
2023/08/17 04:20:08;;;;;;;11.97;10.83;;;18.30;99.90;;;;;;5085880;28;20284;-77
2023/08/17 04:22:35;;;;;;;11.70;10.70;;;18.40;99.90;;;;;;5066415;28;20245;-77
2023/08/17 04:25:02;;;;;;;11.23;10.33;;;18.50;99.90;;;;;;5080435;28;20220;-76
2023/08/17 04:27:30;;;;;;;8.20;7.40;;;18.40;99.90;;;;;;5078129;28;20200;-77
2023/08/17 04:29:58;;;;;;;8.60;7.70;;;18.50;99.90;;;;;;5075487;28;20200;-76
2023/08/17 04:32:27;;;;;;;7.97;7.17;;;18.50;99.90;;;;;;5084706;28;20215;-77
2023/08/17 04:34:54;;;;;;;10.33;9.43;;;18.50;99.90;;;;;;5082334;28;20803;-77
2023/08/17 04:37:21;;;;;;;8.17;6.93;;;18.50;99.90;;;;;;5083128;28;20224;-78
2023/08/17 04:39:49;;;;;;;11.37;10.47;;;18.50;99.90;;;;;;5084860;28;20282;-78
2023/08/17 04:42:20;;;;;;;8.63;7.43;;;18.50;99.90;;;;;;5083649;28;20216;-78
2023/08/17 04:44:48;;;;;;;8.33;7.47;;;18.50;99.90;;;;;;5083243;28;20209;-80
2023/08/17 04:47:16;;;;;;;8.00;7.20;;;18.50;99.90;;;;;;5083501;28;20204;-76
2023/08/17 04:49:44;;;;;;;8.00;6.90;;;18.50;99.90;;;;;;5077413;28;20204;-79
2023/08/17 04:52:11;;;;;;;8.10;7.30;;;18.50;99.90;;;;;;5082441;28;20196;-78
2023/08/17 04:54:38;;;;;;;8.23;7.33;;;18.50;99.90;;;;;;5082266;28;20557;-78
2023/08/17 04:57:05;;;;;;;8.23;7.43;;;18.60;99.90;;;;;;5081963;28;20212;-78
2023/08/17 04:59:32;;;;;;;8.10;7.23;;;18.70;99.90;;;;;;5082449;28;20200;-79
2023/08/17 05:01:59;;;;;;;9.00;8.10;;;18.70;99.90;;;;;;5082363;28;20197;-79
2023/08/17 05:04:26;;;;;;;10.63;9.00;;;18.60;99.90;;;;;;5083859;28;20204;-79
2023/08/17 05:06:56;;;;;;;8.80;7.93;;;18.70;99.90;;;;;;5081077;28;20266;-78
2023/08/17 05:09:23;;;;;;;10.53;9.37;;;18.70;99.90;;;;;;5078581;28;20197;-77
2023/08/17 05:11:50;;;;;;;10.20;8.53;;;18.70;99.90;;;;;;5078264;28;20195;-77
2023/08/17 05:14:17;;;;;;;9.77;8.77;;;18.80;99.90;;;;;;5076937;28;20257;-78
2023/08/17 05:16:44;;;;;;;11.07;9.50;;;18.80;99.90;;;;;;5078292;28;20248;-82
2023/08/17 05:19:11;;;;;;;11.50;9.63;;;18.80;99.90;;;;;;5078856;28;20201;-78
2023/08/17 05:21:38;;;;;;;11.40;9.83;;;18.90;99.90;;;;;;5083508;28;20199;-76
2023/08/17 05:24:07;;;;;;;12.67;10.00;;;18.90;99.90;;;;;;5075887;28;20205;-79
2023/08/17 05:26:34;;;;;;;11.57;10.33;;;18.90;99.90;;;;;;5075071;28;20225;-75
2023/08/17 05:29:01;;;;;;;13.00;11.17;;;19.00;99.90;;;;;;5071390;28;20193;-76
2023/08/17 05:31:27;;;;;;;12.40;11.10;;;19.00;99.90;;;;;;5071382;28;20801;-76
2023/08/17 05:33:55;;;;;;;21.03;19.33;;;19.00;99.90;;;;;;5070375;28;20267;-76
2023/08/17 05:36:24;;;;;;;12.97;10.60;;;19.00;99.90;;;;;;5070537;28;20731;-75
2023/08/17 05:38:51;;;;;;;14.43;12.47;;;19.00;99.90;;;;;;5068966;28;20605;-75
2023/08/17 05:41:20;;;;;;;13.50;11.27;;;19.10;99.90;;;;;;5070619;28;20332;-75
2023/08/17 05:43:48;;;;;;;14.43;11.73;;;19.10;99.90;;;;;;5070622;28;20251;-75
2023/08/17 05:46:15;;;;;;;12.90;11.60;;;19.10;99.90;;;;;;5071334;28;20233;-75
2023/08/17 05:48:42;;;;;;;12.70;11.30;;;19.20;99.90;;;;;;5072504;28;20206;-75
2023/08/17 05:51:08;;;;;;;12.73;11.43;;;19.20;99.90;;;;;;5071889;28;20255;-76
2023/08/17 05:53:35;;;;;;;13.77;11.47;;;19.20;99.90;;;;;;5070355;28;20198;-76
2023/08/17 05:56:02;;;;;;;13.93;11.30;;;19.30;99.90;;;;;;5071880;28;20221;-76
2023/08/17 05:58:31;;;;;;;13.23;11.93;;;19.30;99.90;;;;;;5072177;28;20570;-75
2023/08/17 06:01:05;;;;;;;11.40;10.20;;;19.30;99.90;;;;;;5072006;28;20193;-75
2023/08/17 06:03:32;;;;;;;16.17;14.77;;;19.40;99.90;;;;;;5070163;28;20234;-75
2023/08/17 06:06:00;;;;;;;19.37;17.77;;;19.40;99.90;;;;;;5071784;28;20233;-76
2023/08/17 06:08:27;;;;;;;20.07;18.37;;;19.50;99.90;;;;;;5070337;28;20206;-76
2023/08/17 06:10:54;;;;;;;20.63;18.80;;;19.50;99.90;;;;;;5070771;28;20198;-75
2023/08/17 06:13:21;;;;;;;19.43;17.73;;;19.50;99.90;;;;;;5065758;28;20194;-75
2023/08/17 06:15:49;;;;;;;19.57;17.83;;;19.50;99.90;;;;;;5072112;28;20229;-76
2023/08/17 06:18:16;;;;;;;18.93;17.20;;;19.60;99.90;;;;;;5072047;28;20214;-75
2023/08/17 06:20:43;;;;;;;18.03;16.60;;;19.60;99.90;;;;;;5070860;28;20248;-75
2023/08/17 06:23:10;;;;;;;19.50;17.80;;;19.70;99.90;;;;;;5071355;28;20259;-75
2023/08/17 06:25:36;;;;;;;19.57;17.90;;;19.70;99.90;;;;;;5070786;28;20220;-75
2023/08/17 06:28:04;;;;;;;17.50;16.00;;;19.70;99.90;;;;;;5070401;28;20205;-75
2023/08/17 06:30:30;;;;;;;17.27;15.77;;;19.80;99.90;;;;;;5071580;28;20194;-75
2023/08/17 06:32:59;;;;;;;16.07;14.57;;;19.80;99.90;;;;;;5070141;28;20212;-75
2023/08/17 06:35:25;;;;;;;15.97;14.67;;;19.90;99.90;;;;;;5071249;28;20219;-75
2023/08/17 06:37:56;;;;;;;16.47;15.10;;;19.90;99.90;;;;;;5071509;28;20292;-76
2023/08/17 06:40:23;;;;;;;15.40;14.20;;;19.90;99.90;;;;;;5071535;28;20199;-75
2023/08/17 06:42:50;;;;;;;15.10;13.93;;;19.90;99.90;;;;;;5071578;28;20247;-75
2023/08/17 06:45:18;;;;;;;14.87;13.67;;;19.90;99.90;;;;;;5072938;28;20214;-75
2023/08/17 06:47:45;;;;;;;14.70;13.50;;;20.00;99.90;;;;;;5071851;28;20186;-74
2023/08/17 06:50:13;;;;;;;15.17;13.97;;;20.10;99.90;;;;;;5071227;28;20202;-77
2023/08/17 06:52:40;;;;;;;15.80;14.70;;;20.30;99.90;;;;;;5069339;28;20669;-75
2023/08/17 06:55:08;;;;;;;7.83;7.00;;;20.40;99.90;;;;;;5073011;28;20245;-80
2023/08/17 06:57:34;;;;;;;9.30;7.30;;;20.60;99.90;;;;;;5077686;28;20210;-77
2023/08/17 07:00:01;;;;;;;7.87;7.07;;;20.60;99.90;;;;;;5069450;28;20194;-76
2023/08/17 07:02:28;;;;;;;8.50;7.70;;;20.70;99.90;;;;;;5075013;28;20202;-76
2023/08/17 07:04:55;;;;;;;9.40;7.90;;;20.70;99.90;;;;;;5076391;28;20789;-76
2023/08/17 07:07:24;;;;;;;9.03;7.97;;;20.70;99.90;;;;;;5077650;28;20202;-77
2023/08/17 07:09:50;;;;;;;10.50;9.50;;;20.60;99.90;;;;;;5074707;28;20194;-77
2023/08/17 07:12:19;;;;;;;12.20;11.10;;;20.60;99.90;;;;;;5069679;28;20206;-76
2023/08/17 07:14:46;;;;;;;10.37;9.37;;;20.60;99.90;;;;;;5075719;28;20215;-76
2023/08/17 07:17:12;;;;;;;12.60;11.50;;;20.60;99.90;;;;;;5075699;28;20206;-76
2023/08/17 07:19:39;;;;;;;10.67;9.77;;;20.70;99.90;;;;;;5075018;28;20687;-76
2023/08/17 07:22:06;;;;;;;11.50;10.50;;;20.80;99.90;;;;;;5077795;28;20558;-77
2023/08/17 07:24:35;;;;;;;14.57;13.37;;;20.80;99.90;;;;;;5069059;28;20708;-76
2023/08/17 07:27:01;;;;;;;15.67;14.47;;;20.80;99.90;;;;;;5073355;28;20582;-75
2023/08/17 07:29:28;;;;;;;15.27;14.17;;;20.70;99.90;;;;;;5075968;28;20211;-76
2023/08/17 07:31:58;;;;;;;17.67;16.17;;;20.70;99.90;;;;;;5077084;28;20194;-79
2023/08/17 07:34:25;;;;;;;17.30;15.97;;;20.60;99.90;;;;;;5077929;28;20205;-77
2023/08/17 07:36:51;;;;;;;16.23;15.03;;;20.60;99.90;;;;;;5070344;28;20214;-78
2023/08/17 07:39:19;;;;;;;15.00;13.80;;;20.60;99.90;;;;;;5076359;28;20492;-77
2023/08/17 07:41:47;;;;;;;15.00;13.80;;;20.60;99.90;;;;;;5073188;28;20206;-77
2023/08/17 07:44:14;;;;;;;9.23;8.20;;;20.70;99.90;;;;;;5078736;28;20200;-77
2023/08/17 07:46:41;;;;;;;9.73;8.40;;;20.60;99.90;;;;;;5071480;28;20268;-78
2023/08/17 07:49:08;;;;;;;12.83;11.73;;;20.60;99.90;;;;;;5076339;28;20244;-79
2023/08/17 07:51:35;;;;;;;9.57;8.50;;;20.50;99.90;;;;;;5070938;28;20195;-79
2023/08/17 07:54:02;;;;;;;10.50;8.23;;;20.50;99.90;;;;;;5078535;28;20195;-77
2023/08/17 07:56:28;;;;;;;9.43;8.30;;;20.60;99.90;;;;;;5077185;28;20225;-76
2023/08/17 07:58:58;;;;;;;8.17;7.33;;;20.60;99.90;;;;;;5076605;28;20685;-77
2023/08/17 08:01:24;;;;;;;10.23;8.47;;;20.70;99.90;;;;;;5075624;28;20206;-80
2023/08/17 08:03:51;;;;;;;8.33;7.40;;;20.80;99.90;;;;;;5074979;28;20206;-76
2023/08/17 08:06:20;;;;;;;14.77;13.43;;;21.00;99.90;;;;;;5077103;28;20724;-77
2023/08/17 08:08:47;;;;;;;9.50;8.60;;;21.10;99.90;;;;;;5075915;28;20210;-77
2023/08/17 08:11:14;;;;;;;10.53;9.63;;;21.30;99.90;;;;;;5072287;28;20674;-78
2023/08/17 08:13:40;;;;;;;14.27;13.03;;;21.60;99.90;;;;;;5071405;28;20207;-75
2023/08/17 08:16:08;;;;;;;11.53;10.43;;;21.90;99.90;;;;;;5078863;28;20637;-75
2023/08/17 08:18:35;;;;;;;12.53;11.27;;;22.10;99.90;;;;;;5081265;28;20233;-77
2023/08/17 08:21:02;;;;;;;12.90;11.80;;;22.30;99.90;;;;;;5079397;28;20199;-77
2023/08/17 08:23:29;;;;;;;13.40;12.10;;;22.30;99.90;;;;;;5083290;28;20275;-75
2023/08/17 08:25:58;;;;;;;15.30;14.10;;;22.20;99.90;;;;;;5081875;28;20558;-77
2023/08/17 08:28:25;;;;;;;16.37;14.90;;;22.20;99.90;;;;;;5082632;28;20228;-76
2023/08/17 08:30:52;;;;;;;15.20;14.03;;;22.00;99.90;;;;;;5081719;28;20206;-76
2023/08/17 08:33:20;;;;;;;15.70;14.50;;;21.90;99.90;;;;;;5082121;28;20667;-77
2023/08/17 08:35:47;;;;;;;13.93;12.83;;;21.80;99.90;;;;;;5081964;28;20219;-77
2023/08/17 08:38:15;;;;;;;14.97;13.47;;;21.80;99.90;;;;;;5079787;28;20693;-76
2023/08/17 08:40:44;;;;;;;12.90;11.80;;;21.80;99.90;;;;;;5079932;28;20202;-77
2023/08/17 08:43:11;;;;;;;11.27;10.27;;;21.90;99.90;;;;;;5082065;28;20553;-77
2023/08/17 08:45:40;;;;;;;10.83;9.93;;;22.00;99.90;;;;;;5079701;28;20226;-76
2023/08/17 08:48:09;;;;;;;12.87;11.77;;;22.20;99.90;;;;;;5080503;28;20198;-76
2023/08/17 08:50:40;;;;;;;11.93;10.83;;;22.30;99.90;;;;;;5079028;28;20207;-77
2023/08/17 08:53:14;;;;;;;14.00;12.73;;;22.50;99.90;;;;;;5080888;28;20229;-78
2023/08/17 08:55:48;;;;;;;15.20;13.93;;;22.70;99.90;;;;;;5080674;28;20222;-76
2023/08/17 08:58:17;;;;;;;12.17;11.07;;;23.00;99.90;;;;;;5079703;28;20221;-76
2023/08/17 09:00:46;;;;;;;12.63;11.70;;;23.20;99.90;;;;;;5078218;28;20210;-78
2023/08/17 09:03:14;;;;;;;9.60;8.77;;;23.60;99.90;;;;;;5078919;28;20198;-76
2023/08/17 09:05:45;;;;;;;9.90;9.10;;;23.80;99.90;;;;;;5081470;28;20219;-78
2023/08/17 09:08:14;;;;;;;13.23;12.13;;;24.20;99.90;;;;;;5077822;28;20222;-78
2023/08/17 09:10:41;;;;;;;8.53;7.70;;;24.30;99.90;;;;;;5079138;28;20194;-78
2023/08/17 09:13:09;;;;;;;11.13;9.97;;;24.70;99.90;;;;;;5078628;28;20202;-78
2023/08/17 09:15:36;;;;;;;14.80;13.60;;;25.10;99.90;;;;;;5078541;28;20242;-77
2023/08/17 09:18:05;;;;;;;10.87;9.87;;;25.60;99.90;;;;;;5080512;28;20210;-78
2023/08/17 09:20:37;;;;;;;10.67;9.77;;;26.00;99.90;;;;;;5078045;28;20195;-77
2023/08/17 09:23:10;;;;;;;11.63;10.73;;;26.30;99.90;;;;;;5072774;28;20201;-77
2023/08/17 09:25:39;;;;;;;8.70;7.73;;;26.40;99.90;;;;;;5081102;28;20233;-76
2023/08/17 09:28:09;;;;;;;9.67;8.43;;;26.60;99.90;;;;;;5079361;28;20260;-77
2023/08/17 09:30:53;;;;;;;11.53;10.73;;;26.80;99.90;;;;;;5079107;28;20217;-77
2023/08/17 09:33:21;;;;;;;11.33;10.43;;;27.00;99.90;;;;;;5078536;28;20202;-78
2023/08/17 09:35:49;;;;;;;8.13;6.97;;;27.00;99.90;;;;;;5077577;28;20323;-80
2023/08/17 09:38:17;;;;;;;15.20;14.10;;;27.20;99.90;;;;;;5074472;28;20218;-81
2023/08/17 09:40:44;;;;;;;10.30;9.50;;;27.30;99.90;;;;;;5067716;28;20281;-82
2023/08/17 09:43:13;;;;;;;7.80;6.90;;;27.60;99.90;;;;;;5072229;28;20644;-80
2023/08/17 09:45:39;;;;;;;9.43;8.63;;;27.80;99.90;;;;;;5074175;28;20246;-80
2023/08/17 09:48:07;;;;;;;9.00;8.20;;;27.90;99.90;;;;;;5075722;28;20256;-78
2023/08/17 09:50:34;;;;;;;8.17;7.37;;;27.60;99.90;;;;;;5073256;28;20198;-79
2023/08/17 09:53:02;;;;;;;8.27;7.57;;;27.30;99.90;;;;;;5076899;28;20201;-79
2023/08/17 09:55:32;;;;;;;13.47;12.47;;;27.50;99.90;;;;;;5079571;28;20218;-79
2023/08/17 09:57:59;;;;;;;9.97;9.27;;;27.60;99.90;;;;;;5074694;28;20272;-77
2023/08/17 10:00:27;;;;;;;12.10;11.20;;;27.70;99.90;;;;;;5076680;28;20252;-78
2023/08/17 10:02:56;;;;;;;11.67;10.87;;;27.50;99.90;;;;;;5071498;28;20285;-80
2023/08/17 10:05:23;;;;;;;12.17;11.27;;;27.30;99.90;;;;;;5075525;28;20214;-80
2023/08/17 10:07:54;;;;;;;11.87;10.83;;;27.30;99.90;;;;;;5075114;28;20263;-80
2023/08/17 10:10:26;;;;;;;10.00;9.20;;;27.30;99.90;;;;;;5075150;28;20672;-80
2023/08/17 10:13:07;;;;;;;9.73;8.87;;;27.50;99.90;;;;;;5073885;28;20211;-80
2023/08/17 10:15:39;;;;;;;13.20;11.90;;;27.60;99.90;;;;;;5071153;28;20273;-80
2023/08/17 10:18:14;;;;;;;12.80;11.70;;;27.80;99.90;;;;;;5073689;28;20206;-80
2023/08/17 10:20:46;;;;;;;6.20;5.60;;;27.90;99.90;;;;;;5069612;28;20205;-79
2023/08/17 10:23:17;;;;;;;11.50;9.47;;;27.90;99.90;;;;;;5067516;28;20594;-80
2023/08/17 10:25:45;;;;;;;6.87;6.30;;;27.90;99.90;;;;;;5067683;28;20288;-79
2023/08/17 10:28:14;;;;;;;6.73;6.03;;;27.80;99.90;;;;;;5075015;28;20221;-80
2023/08/17 10:30:41;;;;;;;8.50;7.57;;;27.70;99.90;;;;;;5073384;28;20195;-80
2023/08/17 10:33:09;;;;;;;7.60;6.80;;;27.60;99.90;;;;;;5080309;28;20194;-79
2023/08/17 10:35:39;;;;;;;7.30;6.33;;;27.40;99.90;;;;;;5078503;28;20221;-79
2023/08/17 10:38:06;;;;;;;8.47;6.47;;;27.50;99.90;;;;;;5079756;28;20221;-80
2023/08/17 10:40:37;;;;;;;7.00;6.27;;;27.60;99.90;;;;;;5072118;28;20679;-79
2023/08/17 10:43:04;;;;;;;7.70;5.93;;;27.40;99.90;;;;;;5081369;28;20202;-80
2023/08/17 10:45:34;;;;;;;8.20;7.50;;;27.60;99.90;;;;;;5072689;28;20616;-79
2023/08/17 10:48:29;;;;;;;6.80;5.63;;;27.70;99.90;;;;;;5079785;28;20195;-79
2023/08/17 10:51:04;;;;;;;7.47;6.30;;;27.80;99.90;;;;;;5078220;28;20241;-79
2023/08/17 10:53:44;;;;;;;9.00;8.30;;;28.10;99.90;;;;;;5080041;28;20198;-79
2023/08/17 10:56:15;;;;;;;11.03;10.33;;;28.20;99.90;;;;;;5081030;28;20218;-79
2023/08/17 10:58:44;;;;;;;6.50;5.80;;;28.40;99.90;;;;;;5078926;28;20228;-80
2023/08/17 11:01:13;;;;;;;6.10;5.50;;;28.30;99.90;;;;;;5080147;28;20587;-79
2023/08/17 11:03:43;;;;;;;8.90;8.20;;;28.20;99.90;;;;;;5078013;28;20205;-80
2023/08/17 11:06:18;;;;;;;10.53;9.83;;;28.20;99.90;;;;;;5080225;28;20214;-78
2023/08/17 11:08:55;;;;;;;6.20;5.50;;;28.10;99.90;;;;;;5078446;28;20668;-79
2023/08/17 11:11:23;;;;;;;7.70;6.27;;;28.30;99.90;;;;;;5078872;28;20194;-78
2023/08/17 11:13:50;;;;;;;7.03;5.60;;;28.20;99.90;;;;;;5077100;28;20203;-78
2023/08/17 11:16:20;;;;;;;8.80;8.10;;;28.20;99.90;;;;;;5078809;28;20206;-79
2023/08/17 11:18:48;;;;;;;9.00;8.30;;;28.20;99.90;;;;;;5068650;28;20211;-80
2023/08/17 11:21:15;;;;;;;9.10;8.40;;;28.30;99.90;;;;;;5078823;28;20223;-77
2023/08/17 11:23:42;;;;;;;5.70;4.93;;;28.50;99.90;;;;;;5078105;28;20225;-80
2023/08/17 11:26:10;;;;;;;8.17;7.47;;;28.70;99.90;;;;;;5077254;28;20276;-82
2023/08/17 11:28:38;;;;;;;7.40;5.73;;;28.80;99.90;;;;;;5079221;28;20190;-80
2023/08/17 11:31:06;;;;;;;10.67;9.77;;;28.70;99.90;;;;;;5077978;28;20207;-80
2023/08/17 11:33:37;;;;;;;11.73;10.93;;;28.80;99.90;;;;;;5079421;28;20190;-79
2023/08/17 11:36:06;;;;;;;12.50;11.53;;;28.60;99.90;;;;;;5077944;28;20711;-79
2023/08/17 11:38:34;;;;;;;11.53;10.83;;;28.40;99.90;;;;;;5072892;28;20218;-80
2023/08/17 11:41:02;;;;;;;12.20;11.30;;;28.10;99.90;;;;;;5077705;28;20195;-80
2023/08/17 11:43:30;;;;;;;12.03;11.23;;;27.90;99.90;;;;;;5076575;28;20191;-79
2023/08/17 11:45:57;;;;;;;11.37;10.57;;;27.80;99.90;;;;;;5077919;28;20221;-78
2023/08/17 11:48:25;;;;;;;11.17;10.43;;;27.60;99.90;;;;;;5073091;28;20195;-79
2023/08/17 11:50:54;;;;;;;11.47;10.77;;;27.60;99.90;;;;;;5077367;28;20194;-78
2023/08/17 11:53:22;;;;;;;11.93;11.03;;;27.60;99.90;;;;;;5078278;28;20190;-79
2023/08/17 11:55:49;;;;;;;11.53;10.70;;;27.50;99.90;;;;;;5073454;28;20218;-81
2023/08/17 11:58:16;;;;;;;6.93;6.33;;;27.40;99.90;;;;;;5075793;28;20206;-77
2023/08/17 12:00:45;;;;;;;6.10;5.50;;;27.50;99.90;;;;;;5079952;28;20248;-78
2023/08/17 12:03:15;;;;;;;6.00;5.50;;;27.50;99.90;;;;;;5077992;28;20202;-79
2023/08/17 12:05:44;;;;;;;6.50;5.90;;;27.50;99.90;;;;;;5075794;28;20218;-79
2023/08/17 12:08:14;;;;;;;5.80;5.30;;;27.50;99.90;;;;;;5077899;28;20199;-78
2023/08/17 12:10:41;;;;;;;6.77;6.07;;;27.40;99.90;;;;;;5076599;28;20705;-81
2023/08/17 12:13:12;;;;;;;9.90;9.20;;;27.30;99.90;;;;;;5070550;28;20257;-79
2023/08/17 12:15:40;;;;;;;5.90;5.40;;;27.20;99.90;;;;;;5074971;28;20219;-80
2023/08/17 12:18:06;;;;;;;6.30;5.80;;;27.10;99.90;;;;;;5075567;28;20195;-80
2023/08/17 12:20:36;;;;;;;9.57;8.87;;;26.90;99.90;;;;;;5074937;28;20194;-79
2023/08/17 12:23:03;;;;;;;6.03;5.53;;;26.80;99.90;;;;;;5075491;28;20226;-81
2023/08/17 12:25:32;;;;;;;6.03;5.53;;;26.70;99.90;;;;;;5071057;28;20222;-79
2023/08/17 12:28:00;;;;;;;5.57;5.10;;;26.50;99.90;;;;;;5075006;28;20199;-83
2023/08/17 12:30:29;;;;;;;6.70;6.10;;;26.50;99.90;;;;;;5075044;28;20233;-80
2023/08/17 12:32:56;;;;;;;10.63;9.90;;;26.40;99.90;;;;;;5076301;28;20194;-82
2023/08/17 12:35:24;;;;;;;12.23;11.43;;;26.30;99.90;;;;;;5070309;28;20230;-80
2023/08/17 12:37:51;;;;;;;9.67;8.97;;;26.20;99.90;;;;;;5074541;28;20245;-79